sensor_id;sensor_type;location;lat;lon;timestamp;P1;durP1;ratioP1;P2;durP2;ratioP2
25715;SDS011;13573;50.936;4.328;2022-08-01T00:01:45;9.00;;;4.17;;
25715;SDS011;13573;50.936;4.328;2022-08-01T00:04:11;7.47;;;3.60;;
25715;SDS011;13573;50.936;4.328;2022-08-01T00:06:39;7.47;;;3.57;;
25715;SDS011;13573;50.936;4.328;2022-08-01T00:09:05;6.43;;;3.67;;
25715;SDS011;13573;50.936;4.328;2022-08-01T00:11:31;13.30;;;4.27;;
25715;SDS011;13573;50.936;4.328;2022-08-01T00:13:58;6.87;;;4.20;;
25715;SDS011;13573;50.936;4.328;2022-08-01T00:16:25;7.93;;;4.40;;
25715;SDS011;13573;50.936;4.328;2022-08-01T00:18:51;8.53;;;3.63;;
25715;SDS011;13573;50.936;4.328;2022-08-01T00:21:18;6.53;;;4.07;;
25715;SDS011;13573;50.936;4.328;2022-08-01T00:23:44;9.23;;;4.30;;
25715;SDS011;13573;50.936;4.328;2022-08-01T00:26:12;9.37;;;4.90;;
25715;SDS011;13573;50.936;4.328;2022-08-01T00:28:40;7.67;;;4.50;;
25715;SDS011;13573;50.936;4.328;2022-08-01T00:31:07;11.00;;;5.03;;
25715;SDS011;13573;50.936;4.328;2022-08-01T00:33:34;9.03;;;5.03;;
25715;SDS011;13573;50.936;4.328;2022-08-01T00:36:01;9.13;;;4.30;;
25715;SDS011;13573;50.936;4.328;2022-08-01T00:38:27;11.60;;;4.53;;
25715;SDS011;13573;50.936;4.328;2022-08-01T00:40:54;7.57;;;4.27;;
25715;SDS011;13573;50.936;4.328;2022-08-01T00:43:21;6.13;;;4.17;;
25715;SDS011;13573;50.936;4.328;2022-08-01T00:45:48;9.30;;;4.30;;
25715;SDS011;13573;50.936;4.328;2022-08-01T00:48:15;7.37;;;4.00;;
25715;SDS011;13573;50.936;4.328;2022-08-01T00:50:41;10.67;;;4.60;;
25715;SDS011;13573;50.936;4.328;2022-08-01T00:53:08;8.20;;;3.87;;
25715;SDS011;13573;50.936;4.328;2022-08-01T00:55:35;8.03;;;3.80;;
25715;SDS011;13573;50.936;4.328;2022-08-01T00:58:01;10.57;;;4.30;;
25715;SDS011;13573;50.936;4.328;2022-08-01T01:00:28;7.03;;;4.23;;
25715;SDS011;13573;50.936;4.328;2022-08-01T01:02:56;7.83;;;4.20;;
25715;SDS011;13573;50.936;4.328;2022-08-01T01:05:23;10.60;;;4.70;;
25715;SDS011;13573;50.936;4.328;2022-08-01T01:07:54;6.70;;;4.57;;
25715;SDS011;13573;50.936;4.328;2022-08-01T01:10:25;13.63;;;5.20;;
25715;SDS011;13573;50.936;4.328;2022-08-01T01:15:50;12.20;;;6.13;;
25715;SDS011;13573;50.936;4.328;2022-08-01T01:18:24;12.80;;;6.37;;
25715;SDS011;13573;50.936;4.328;2022-08-01T01:21:03;11.23;;;6.73;;
25715;SDS011;13573;50.936;4.328;2022-08-01T01:23:54;14.17;;;7.73;;
25715;SDS011;13573;50.936;4.328;2022-08-01T01:29:13;16.57;;;7.93;;
25715;SDS011;13573;50.936;4.328;2022-08-01T01:31:47;14.27;;;8.53;;
25715;SDS011;13573;50.936;4.328;2022-08-01T01:34:17;21.80;;;9.20;;
25715;SDS011;13573;50.936;4.328;2022-08-01T01:36:45;17.87;;;9.57;;
25715;SDS011;13573;50.936;4.328;2022-08-01T01:39:14;21.47;;;10.00;;
25715;SDS011;13573;50.936;4.328;2022-08-01T01:41:43;18.63;;;9.67;;
25715;SDS011;13573;50.936;4.328;2022-08-01T01:44:11;18.63;;;9.63;;
25715;SDS011;13573;50.936;4.328;2022-08-01T01:46:39;22.73;;;9.93;;
25715;SDS011;13573;50.936;4.328;2022-08-01T01:49:08;25.17;;;10.87;;
25715;SDS011;13573;50.936;4.328;2022-08-01T01:51:36;22.40;;;9.93;;
25715;SDS011;13573;50.936;4.328;2022-08-01T01:54:04;20.97;;;10.70;;
25715;SDS011;13573;50.936;4.328;2022-08-01T01:56:35;22.23;;;10.53;;
25715;SDS011;13573;50.936;4.328;2022-08-01T01:59:03;20.03;;;10.83;;
25715;SDS011;13573;50.936;4.328;2022-08-01T02:01:31;19.77;;;9.37;;
25715;SDS011;13573;50.936;4.328;2022-08-01T02:03:59;24.67;;;11.53;;
25715;SDS011;13573;50.936;4.328;2022-08-01T02:06:28;24.07;;;10.80;;
25715;SDS011;13573;50.936;4.328;2022-08-01T02:08:57;21.57;;;11.27;;
25715;SDS011;13573;50.936;4.328;2022-08-01T02:11:25;23.43;;;11.67;;
25715;SDS011;13573;50.936;4.328;2022-08-01T02:13:55;20.57;;;11.33;;
25715;SDS011;13573;50.936;4.328;2022-08-01T02:16:26;25.77;;;12.03;;
25715;SDS011;13573;50.936;4.328;2022-08-01T02:18:56;21.50;;;10.27;;
25715;SDS011;13573;50.936;4.328;2022-08-01T02:21:26;22.13;;;10.50;;
25715;SDS011;13573;50.936;4.328;2022-08-01T02:23:55;22.13;;;10.43;;
25715;SDS011;13573;50.936;4.328;2022-08-01T02:26:24;27.40;;;11.03;;
25715;SDS011;13573;50.936;4.328;2022-08-01T02:28:53;20.43;;;11.40;;
25715;SDS011;13573;50.936;4.328;2022-08-01T02:31:25;21.07;;;9.90;;
25715;SDS011;13573;50.936;4.328;2022-08-01T02:33:57;22.43;;;10.87;;
25715;SDS011;13573;50.936;4.328;2022-08-01T02:36:28;25.80;;;11.97;;
25715;SDS011;13573;50.936;4.328;2022-08-01T02:38:56;27.67;;;12.57;;
25715;SDS011;13573;50.936;4.328;2022-08-01T02:41:24;21.97;;;11.33;;
25715;SDS011;13573;50.936;4.328;2022-08-01T02:43:53;28.00;;;13.63;;
25715;SDS011;13573;50.936;4.328;2022-08-01T02:46:27;28.07;;;14.00;;
25715;SDS011;13573;50.936;4.328;2022-08-01T02:48:58;25.80;;;13.47;;
25715;SDS011;13573;50.936;4.328;2022-08-01T02:51:29;29.93;;;14.60;;
25715;SDS011;13573;50.936;4.328;2022-08-01T02:53:58;28.43;;;13.47;;
25715;SDS011;13573;50.936;4.328;2022-08-01T02:56:28;30.77;;;13.97;;
25715;SDS011;13573;50.936;4.328;2022-08-01T02:59:05;26.13;;;13.60;;
25715;SDS011;13573;50.936;4.328;2022-08-01T03:01:34;35.40;;;15.33;;
25715;SDS011;13573;50.936;4.328;2022-08-01T03:04:04;33.03;;;15.40;;
25715;SDS011;13573;50.936;4.328;2022-08-01T03:06:32;28.73;;;13.87;;
25715;SDS011;13573;50.936;4.328;2022-08-01T03:09:00;32.87;;;14.53;;
25715;SDS011;13573;50.936;4.328;2022-08-01T03:11:29;31.23;;;14.83;;
25715;SDS011;13573;50.936;4.328;2022-08-01T03:13:56;28.47;;;14.33;;
25715;SDS011;13573;50.936;4.328;2022-08-01T03:16:27;30.07;;;13.67;;
25715;SDS011;13573;50.936;4.328;2022-08-01T03:18:55;25.27;;;14.27;;
25715;SDS011;13573;50.936;4.328;2022-08-01T03:21:23;26.30;;;14.77;;
25715;SDS011;13573;50.936;4.328;2022-08-01T03:23:51;35.23;;;15.70;;
25715;SDS011;13573;50.936;4.328;2022-08-01T03:26:21;30.07;;;15.47;;
25715;SDS011;13573;50.936;4.328;2022-08-01T03:28:48;24.47;;;13.90;;
25715;SDS011;13573;50.936;4.328;2022-08-01T03:31:16;36.57;;;16.20;;
25715;SDS011;13573;50.936;4.328;2022-08-01T03:33:43;27.90;;;16.07;;
25715;SDS011;13573;50.936;4.328;2022-08-01T03:36:10;29.80;;;16.40;;
25715;SDS011;13573;50.936;4.328;2022-08-01T03:38:39;33.63;;;16.73;;
25715;SDS011;13573;50.936;4.328;2022-08-01T03:41:09;39.00;;;17.43;;
25715;SDS011;13573;50.936;4.328;2022-08-01T03:43:41;26.43;;;14.90;;
25715;SDS011;13573;50.936;4.328;2022-08-01T03:46:17;25.60;;;15.10;;
25715;SDS011;13573;50.936;4.328;2022-08-01T03:48:47;35.67;;;17.30;;
25715;SDS011;13573;50.936;4.328;2022-08-01T03:51:16;28.00;;;15.67;;
25715;SDS011;13573;50.936;4.328;2022-08-01T03:53:45;40.30;;;16.97;;
25715;SDS011;13573;50.936;4.328;2022-08-01T03:56:13;30.87;;;17.10;;
25715;SDS011;13573;50.936;4.328;2022-08-01T03:58:44;32.37;;;15.77;;
25715;SDS011;13573;50.936;4.328;2022-08-01T04:01:12;32.80;;;16.00;;
25715;SDS011;13573;50.936;4.328;2022-08-01T04:03:39;31.30;;;17.20;;
25715;SDS011;13573;50.936;4.328;2022-08-01T04:06:07;31.20;;;16.67;;
25715;SDS011;13573;50.936;4.328;2022-08-01T04:08:37;27.60;;;18.07;;
25715;SDS011;13573;50.936;4.328;2022-08-01T04:11:04;35.97;;;17.80;;
25715;SDS011;13573;50.936;4.328;2022-08-01T04:13:31;28.23;;;16.23;;
25715;SDS011;13573;50.936;4.328;2022-08-01T04:15:58;29.20;;;16.37;;
25715;SDS011;13573;50.936;4.328;2022-08-01T04:18:25;28.53;;;15.93;;
25715;SDS011;13573;50.936;4.328;2022-08-01T04:20:52;26.33;;;16.77;;
25715;SDS011;13573;50.936;4.328;2022-08-01T04:23:20;28.70;;;16.53;;
25715;SDS011;13573;50.936;4.328;2022-08-01T04:25:49;22.07;;;14.40;;
25715;SDS011;13573;50.936;4.328;2022-08-01T04:28:16;24.97;;;16.60;;
25715;SDS011;13573;50.936;4.328;2022-08-01T04:30:45;23.33;;;15.73;;
25715;SDS011;13573;50.936;4.328;2022-08-01T04:33:14;24.27;;;14.97;;
25715;SDS011;13573;50.936;4.328;2022-08-01T04:35:45;21.70;;;14.03;;
25715;SDS011;13573;50.936;4.328;2022-08-01T04:38:15;21.40;;;14.07;;
25715;SDS011;13573;50.936;4.328;2022-08-01T04:40:46;22.47;;;14.90;;
25715;SDS011;13573;50.936;4.328;2022-08-01T04:43:16;22.97;;;15.53;;
25715;SDS011;13573;50.936;4.328;2022-08-01T04:45:44;20.77;;;13.70;;
25715;SDS011;13573;50.936;4.328;2022-08-01T04:48:12;19.27;;;13.97;;
25715;SDS011;13573;50.936;4.328;2022-08-01T04:50:41;22.03;;;13.50;;
25715;SDS011;13573;50.936;4.328;2022-08-01T04:53:14;22.07;;;15.17;;
25715;SDS011;13573;50.936;4.328;2022-08-01T04:55:43;19.27;;;13.03;;
25715;SDS011;13573;50.936;4.328;2022-08-01T04:58:11;26.07;;;17.33;;
25715;SDS011;13573;50.936;4.328;2022-08-01T05:00:38;25.07;;;16.87;;
25715;SDS011;13573;50.936;4.328;2022-08-01T05:03:05;21.03;;;14.23;;
25715;SDS011;13573;50.936;4.328;2022-08-01T05:05:32;23.87;;;15.00;;
25715;SDS011;13573;50.936;4.328;2022-08-01T05:07:59;23.00;;;15.97;;
25715;SDS011;13573;50.936;4.328;2022-08-01T05:10:26;19.17;;;13.90;;
25715;SDS011;13573;50.936;4.328;2022-08-01T05:12:53;17.27;;;12.83;;
25715;SDS011;13573;50.936;4.328;2022-08-01T05:15:20;19.33;;;13.93;;
25715;SDS011;13573;50.936;4.328;2022-08-01T05:17:47;21.67;;;14.00;;
25715;SDS011;13573;50.936;4.328;2022-08-01T05:20:13;17.70;;;11.53;;
25715;SDS011;13573;50.936;4.328;2022-08-01T05:22:40;25.00;;;13.73;;
25715;SDS011;13573;50.936;4.328;2022-08-01T05:25:08;15.30;;;11.23;;
25715;SDS011;13573;50.936;4.328;2022-08-01T05:27:34;17.17;;;11.50;;
25715;SDS011;13573;50.936;4.328;2022-08-01T05:30:03;16.43;;;10.80;;
25715;SDS011;13573;50.936;4.328;2022-08-01T05:32:31;18.23;;;11.30;;
25715;SDS011;13573;50.936;4.328;2022-08-01T05:34:57;15.53;;;10.90;;
25715;SDS011;13573;50.936;4.328;2022-08-01T05:37:25;17.80;;;10.67;;
25715;SDS011;13573;50.936;4.328;2022-08-01T05:39:51;15.60;;;9.53;;
25715;SDS011;13573;50.936;4.328;2022-08-01T05:42:18;13.17;;;9.23;;
25715;SDS011;13573;50.936;4.328;2022-08-01T05:44:44;13.00;;;9.03;;
25715;SDS011;13573;50.936;4.328;2022-08-01T05:47:11;16.87;;;9.90;;
25715;SDS011;13573;50.936;4.328;2022-08-01T05:49:38;14.23;;;8.70;;
25715;SDS011;13573;50.936;4.328;2022-08-01T05:52:04;15.90;;;9.23;;
25715;SDS011;13573;50.936;4.328;2022-08-01T05:54:31;11.33;;;7.70;;
25715;SDS011;13573;50.936;4.328;2022-08-01T05:56:58;11.70;;;8.17;;
25715;SDS011;13573;50.936;4.328;2022-08-01T05:59:27;13.93;;;7.67;;
25715;SDS011;13573;50.936;4.328;2022-08-01T06:01:54;15.67;;;8.33;;
25715;SDS011;13573;50.936;4.328;2022-08-01T06:04:21;12.53;;;8.27;;
25715;SDS011;13573;50.936;4.328;2022-08-01T06:06:48;12.90;;;7.73;;
25715;SDS011;13573;50.936;4.328;2022-08-01T06:09:15;11.40;;;7.00;;
25715;SDS011;13573;50.936;4.328;2022-08-01T06:11:42;10.87;;;7.03;;
25715;SDS011;13573;50.936;4.328;2022-08-01T06:14:08;11.63;;;6.87;;
25715;SDS011;13573;50.936;4.328;2022-08-01T06:16:35;10.60;;;6.70;;
25715;SDS011;13573;50.936;4.328;2022-08-01T06:19:01;9.93;;;6.20;;
25715;SDS011;13573;50.936;4.328;2022-08-01T06:21:28;8.77;;;5.80;;
25715;SDS011;13573;50.936;4.328;2022-08-01T06:23:55;9.53;;;5.33;;
25715;SDS011;13573;50.936;4.328;2022-08-01T06:26:21;7.83;;;5.20;;
25715;SDS011;13573;50.936;4.328;2022-08-01T06:28:48;8.03;;;4.77;;
25715;SDS011;13573;50.936;4.328;2022-08-01T06:31:16;10.23;;;4.87;;
25715;SDS011;13573;50.936;4.328;2022-08-01T06:33:42;7.83;;;4.60;;
25715;SDS011;13573;50.936;4.328;2022-08-01T06:36:09;8.17;;;5.47;;
25715;SDS011;13573;50.936;4.328;2022-08-01T06:38:35;6.47;;;4.50;;
25715;SDS011;13573;50.936;4.328;2022-08-01T06:41:04;4.53;;;4.03;;
25715;SDS011;13573;50.936;4.328;2022-08-01T06:43:31;8.47;;;4.20;;
25715;SDS011;13573;50.936;4.328;2022-08-01T06:45:57;7.50;;;4.27;;
25715;SDS011;13573;50.936;4.328;2022-08-01T06:48:24;4.33;;;3.23;;
25715;SDS011;13573;50.936;4.328;2022-08-01T06:50:50;5.10;;;3.50;;
25715;SDS011;13573;50.936;4.328;2022-08-01T06:53:19;5.13;;;3.30;;
25715;SDS011;13573;50.936;4.328;2022-08-01T06:55:46;5.13;;;3.43;;
25715;SDS011;13573;50.936;4.328;2022-08-01T06:58:12;5.13;;;2.87;;
25715;SDS011;13573;50.936;4.328;2022-08-01T07:00:39;4.90;;;3.33;;
25715;SDS011;13573;50.936;4.328;2022-08-01T07:03:07;4.50;;;2.90;;
25715;SDS011;13573;50.936;4.328;2022-08-01T07:05:34;3.60;;;2.47;;
25715;SDS011;13573;50.936;4.328;2022-08-01T07:08:01;3.00;;;2.20;;
25715;SDS011;13573;50.936;4.328;2022-08-01T07:10:27;3.70;;;2.13;;
25715;SDS011;13573;50.936;4.328;2022-08-01T07:12:54;4.60;;;2.40;;
25715;SDS011;13573;50.936;4.328;2022-08-01T07:15:21;2.87;;;2.17;;
25715;SDS011;13573;50.936;4.328;2022-08-01T07:17:50;2.47;;;1.90;;
25715;SDS011;13573;50.936;4.328;2022-08-01T07:20:16;3.87;;;1.97;;
25715;SDS011;13573;50.936;4.328;2022-08-01T07:22:43;3.17;;;1.67;;
25715;SDS011;13573;50.936;4.328;2022-08-01T07:25:10;2.90;;;1.77;;
25715;SDS011;13573;50.936;4.328;2022-08-01T07:27:37;4.80;;;2.23;;
25715;SDS011;13573;50.936;4.328;2022-08-01T07:30:04;2.83;;;2.17;;
25715;SDS011;13573;50.936;4.328;2022-08-01T07:32:33;5.07;;;2.50;;
25715;SDS011;13573;50.936;4.328;2022-08-01T07:35:00;3.47;;;2.00;;
25715;SDS011;13573;50.936;4.328;2022-08-01T07:37:28;3.13;;;2.00;;
25715;SDS011;13573;50.936;4.328;2022-08-01T07:39:54;2.47;;;1.70;;
25715;SDS011;13573;50.936;4.328;2022-08-01T07:42:21;2.40;;;1.83;;
25715;SDS011;13573;50.936;4.328;2022-08-01T07:44:47;2.87;;;1.70;;
25715;SDS011;13573;50.936;4.328;2022-08-01T07:47:14;3.03;;;2.03;;
25715;SDS011;13573;50.936;4.328;2022-08-01T07:49:41;2.60;;;1.90;;
25715;SDS011;13573;50.936;4.328;2022-08-01T07:52:08;4.60;;;1.83;;
25715;SDS011;13573;50.936;4.328;2022-08-01T07:54:35;2.90;;;2.20;;
25715;SDS011;13573;50.936;4.328;2022-08-01T07:57:02;4.03;;;1.90;;
25715;SDS011;13573;50.936;4.328;2022-08-01T07:59:32;5.27;;;1.77;;
25715;SDS011;13573;50.936;4.328;2022-08-01T08:02:00;1.93;;;1.40;;
25715;SDS011;13573;50.936;4.328;2022-08-01T08:04:28;2.13;;;1.20;;
25715;SDS011;13573;50.936;4.328;2022-08-01T08:06:54;3.23;;;1.40;;
25715;SDS011;13573;50.936;4.328;2022-08-01T08:09:21;1.50;;;1.13;;
25715;SDS011;13573;50.936;4.328;2022-08-01T08:11:48;1.30;;;1.00;;
25715;SDS011;13573;50.936;4.328;2022-08-01T08:14:17;1.67;;;1.33;;
25715;SDS011;13573;50.936;4.328;2022-08-01T08:16:44;1.90;;;1.50;;
25715;SDS011;13573;50.936;4.328;2022-08-01T08:19:11;2.10;;;1.83;;
25715;SDS011;13573;50.936;4.328;2022-08-01T08:21:38;1.60;;;1.40;;
25715;SDS011;13573;50.936;4.328;2022-08-01T08:24:05;2.83;;;1.40;;
25715;SDS011;13573;50.936;4.328;2022-08-01T08:26:39;1.83;;;1.20;;
25715;SDS011;13573;50.936;4.328;2022-08-01T08:29:06;1.63;;;1.20;;
25715;SDS011;13573;50.936;4.328;2022-08-01T08:31:34;2.30;;;1.13;;
25715;SDS011;13573;50.936;4.328;2022-08-01T08:34:00;1.20;;;1.00;;
25715;SDS011;13573;50.936;4.328;2022-08-01T08:36:27;1.70;;;1.30;;
25715;SDS011;13573;50.936;4.328;2022-08-01T08:38:54;3.00;;;1.30;;
25715;SDS011;13573;50.936;4.328;2022-08-01T08:41:21;2.33;;;1.10;;
25715;SDS011;13573;50.936;4.328;2022-08-01T08:43:48;2.90;;;1.30;;
25715;SDS011;13573;50.936;4.328;2022-08-01T08:46:16;2.27;;;1.20;;
25715;SDS011;13573;50.936;4.328;2022-08-01T08:48:43;3.20;;;1.20;;
25715;SDS011;13573;50.936;4.328;2022-08-01T08:51:11;1.40;;;0.87;;
25715;SDS011;13573;50.936;4.328;2022-08-01T08:53:40;3.47;;;1.00;;
25715;SDS011;13573;50.936;4.328;2022-08-01T08:56:10;1.23;;;1.00;;
25715;SDS011;13573;50.936;4.328;2022-08-01T08:58:41;1.45;;;0.90;;
25715;SDS011;13573;50.936;4.328;2022-08-01T09:01:10;3.80;;;1.12;;
25715;SDS011;13573;50.936;4.328;2022-08-01T09:03:38;3.12;;;1.27;;
25715;SDS011;13573;50.936;4.328;2022-08-01T09:06:05;2.37;;;0.70;;
25715;SDS011;13573;50.936;4.328;2022-08-01T09:08:32;0.50;;;0.50;;
25715;SDS011;13573;50.936;4.328;2022-08-01T09:11:01;0.70;;;0.70;;
25715;SDS011;13573;50.936;4.328;2022-08-01T09:13:27;1.22;;;0.90;;
25715;SDS011;13573;50.936;4.328;2022-08-01T09:15:55;2.35;;;0.62;;
25715;SDS011;13573;50.936;4.328;2022-08-01T09:18:29;1.00;;;0.65;;
25715;SDS011;13573;50.936;4.328;2022-08-01T09:21:09;2.47;;;0.88;;
25715;SDS011;13573;50.936;4.328;2022-08-01T09:23:43;0.80;;;0.70;;
25715;SDS011;13573;50.936;4.328;2022-08-01T09:26:13;1.85;;;0.80;;
25715;SDS011;13573;50.936;4.328;2022-08-01T09:28:42;2.08;;;0.75;;
25715;SDS011;13573;50.936;4.328;2022-08-01T09:31:11;1.02;;;0.60;;
25715;SDS011;13573;50.936;4.328;2022-08-01T09:36:14;2.08;;;0.70;;
25715;SDS011;13573;50.936;4.328;2022-08-01T09:38:40;2.87;;;0.82;;
25715;SDS011;13573;50.936;4.328;2022-08-01T09:41:07;1.72;;;0.70;;
25715;SDS011;13573;50.936;4.328;2022-08-01T09:43:34;1.47;;;0.80;;
25715;SDS011;13573;50.936;4.328;2022-08-01T09:46:05;1.12;;;0.80;;
25715;SDS011;13573;50.936;4.328;2022-08-01T09:48:37;2.10;;;1.00;;
25715;SDS011;13573;50.936;4.328;2022-08-01T09:51:06;2.37;;;1.20;;
25715;SDS011;13573;50.936;4.328;2022-08-01T09:53:40;2.27;;;0.90;;
25715;SDS011;13573;50.936;4.328;2022-08-01T09:56:09;1.65;;;0.98;;
25715;SDS011;13573;50.936;4.328;2022-08-01T10:01:24;0.80;;;0.65;;
25715;SDS011;13573;50.936;4.328;2022-08-01T10:04:03;0.95;;;0.60;;
25715;SDS011;13573;50.936;4.328;2022-08-01T10:06:28;0.98;;;0.72;;
25715;SDS011;13573;50.936;4.328;2022-08-01T10:08:55;2.33;;;0.55;;
25715;SDS011;13573;50.936;4.328;2022-08-01T10:11:21;1.62;;;0.70;;
25715;SDS011;13573;50.936;4.328;2022-08-01T10:13:49;0.75;;;0.50;;
25715;SDS011;13573;50.936;4.328;2022-08-01T10:16:15;1.00;;;0.80;;
25715;SDS011;13573;50.936;4.328;2022-08-01T10:18:42;3.33;;;0.85;;
25715;SDS011;13573;50.936;4.328;2022-08-01T10:21:12;1.70;;;0.60;;
25715;SDS011;13573;50.936;4.328;2022-08-01T10:23:39;1.20;;;0.60;;
25715;SDS011;13573;50.936;4.328;2022-08-01T10:26:08;1.98;;;0.70;;
25715;SDS011;13573;50.936;4.328;2022-08-01T10:28:37;1.62;;;0.70;;
25715;SDS011;13573;50.936;4.328;2022-08-01T10:31:04;1.42;;;0.70;;
25715;SDS011;13573;50.936;4.328;2022-08-01T10:33:32;4.25;;;0.75;;
25715;SDS011;13573;50.936;4.328;2022-08-01T10:36:02;1.22;;;0.60;;
25715;SDS011;13573;50.936;4.328;2022-08-01T10:38:28;2.25;;;0.68;;
25715;SDS011;13573;50.936;4.328;2022-08-01T10:40:55;3.02;;;1.02;;
25715;SDS011;13573;50.936;4.328;2022-08-01T10:43:25;1.12;;;0.68;;
25715;SDS011;13573;50.936;4.328;2022-08-01T10:45:52;1.30;;;0.85;;
25715;SDS011;13573;50.936;4.328;2022-08-01T10:48:22;1.25;;;0.80;;
25715;SDS011;13573;50.936;4.328;2022-08-01T10:50:57;1.22;;;0.82;;
25715;SDS011;13573;50.936;4.328;2022-08-01T10:53:26;1.92;;;0.70;;
25715;SDS011;13573;50.936;4.328;2022-08-01T10:55:59;1.37;;;0.80;;
25715;SDS011;13573;50.936;4.328;2022-08-01T10:58:32;1.50;;;1.10;;
25715;SDS011;13573;50.936;4.328;2022-08-01T11:06:42;0.95;;;0.70;;
25715;SDS011;13573;50.936;4.328;2022-08-01T11:09:23;0.95;;;0.70;;
25715;SDS011;13573;50.936;4.328;2022-08-01T11:15:17;1.12;;;0.88;;
25715;SDS011;13573;50.936;4.328;2022-08-01T11:17:46;0.80;;;0.60;;
25715;SDS011;13573;50.936;4.328;2022-08-01T11:20:14;3.10;;;0.90;;
25715;SDS011;13573;50.936;4.328;2022-08-01T11:25:21;1.22;;;0.80;;
25715;SDS011;13573;50.936;4.328;2022-08-01T11:27:48;2.10;;;0.70;;
25715;SDS011;13573;50.936;4.328;2022-08-01T11:30:22;2.47;;;0.90;;
25715;SDS011;13573;50.936;4.328;2022-08-01T11:32:51;2.62;;;0.90;;
25715;SDS011;13573;50.936;4.328;2022-08-01T11:35:21;2.85;;;0.90;;
25715;SDS011;13573;50.936;4.328;2022-08-01T11:37:50;0.88;;;0.75;;
25715;SDS011;13573;50.936;4.328;2022-08-01T11:40:23;2.87;;;0.70;;
25715;SDS011;13573;50.936;4.328;2022-08-01T11:45:48;1.57;;;0.80;;
25715;SDS011;13573;50.936;4.328;2022-08-01T11:48:17;3.00;;;0.88;;
25715;SDS011;13573;50.936;4.328;2022-08-01T11:50:45;1.17;;;0.70;;
25715;SDS011;13573;50.936;4.328;2022-08-01T11:53:12;3.50;;;1.17;;
25715;SDS011;13573;50.936;4.328;2022-08-01T11:55:46;1.37;;;0.95;;
25715;SDS011;13573;50.936;4.328;2022-08-01T11:58:14;2.40;;;1.00;;
25715;SDS011;13573;50.936;4.328;2022-08-01T12:00:49;1.75;;;1.10;;
25715;SDS011;13573;50.936;4.328;2022-08-01T12:03:13;1.20;;;0.80;;
25715;SDS011;13573;50.936;4.328;2022-08-01T12:05:39;1.00;;;0.80;;
25715;SDS011;13573;50.936;4.328;2022-08-01T12:08:09;3.52;;;0.95;;
25715;SDS011;13573;50.936;4.328;2022-08-01T12:10:36;2.02;;;0.75;;
25715;SDS011;13573;50.936;4.328;2022-08-01T12:13:04;3.20;;;0.93;;
25715;SDS011;13573;50.936;4.328;2022-08-01T12:15:33;1.70;;;0.93;;
25715;SDS011;13573;50.936;4.328;2022-08-01T12:18:03;4.25;;;0.70;;
25715;SDS011;13573;50.936;4.328;2022-08-01T12:20:32;1.65;;;0.80;;
25715;SDS011;13573;50.936;4.328;2022-08-01T12:23:02;3.92;;;0.90;;
25715;SDS011;13573;50.936;4.328;2022-08-01T12:25:31;1.50;;;0.93;;
25715;SDS011;13573;50.936;4.328;2022-08-01T12:27:59;1.30;;;0.80;;
25715;SDS011;13573;50.936;4.328;2022-08-01T12:30:28;2.95;;;0.85;;
25715;SDS011;13573;50.936;4.328;2022-08-01T12:32:59;5.05;;;1.50;;
25715;SDS011;13573;50.936;4.328;2022-08-01T12:35:27;3.27;;;1.12;;
25715;SDS011;13573;50.936;4.328;2022-08-01T12:37:57;0.80;;;0.70;;
25715;SDS011;13573;50.936;4.328;2022-08-01T12:40:26;2.83;;;1.10;;
25715;SDS011;13573;50.936;4.328;2022-08-01T12:42:58;3.42;;;0.82;;
25715;SDS011;13573;50.936;4.328;2022-08-01T12:45:28;1.70;;;0.78;;
25715;SDS011;13573;50.936;4.328;2022-08-01T12:47:59;3.25;;;0.78;;
25715;SDS011;13573;50.936;4.328;2022-08-01T12:50:27;2.42;;;1.10;;
25715;SDS011;13573;50.936;4.328;2022-08-01T12:52:56;2.08;;;0.93;;
25715;SDS011;13573;50.936;4.328;2022-08-01T12:55:25;3.62;;;1.00;;
25715;SDS011;13573;50.936;4.328;2022-08-01T13:00:33;3.55;;;0.98;;
25715;SDS011;13573;50.936;4.328;2022-08-01T13:03:02;4.22;;;0.90;;
25715;SDS011;13573;50.936;4.328;2022-08-01T13:08:11;2.25;;;0.80;;
25715;SDS011;13573;50.936;4.328;2022-08-01T13:10:38;1.20;;;0.90;;
25715;SDS011;13573;50.936;4.328;2022-08-01T13:13:06;1.05;;;0.72;;
25715;SDS011;13573;50.936;4.328;2022-08-01T13:15:35;0.80;;;0.80;;
25715;SDS011;13573;50.936;4.328;2022-08-01T13:20:43;2.72;;;0.80;;
25715;SDS011;13573;50.936;4.328;2022-08-01T13:23:10;2.30;;;0.78;;
25715;SDS011;13573;50.936;4.328;2022-08-01T13:28:14;2.47;;;0.98;;
25715;SDS011;13573;50.936;4.328;2022-08-01T13:30:50;3.52;;;0.80;;
25715;SDS011;13573;50.936;4.328;2022-08-01T13:33:16;1.35;;;0.78;;
25715;SDS011;13573;50.936;4.328;2022-08-01T13:35:42;2.58;;;0.90;;
25715;SDS011;13573;50.936;4.328;2022-08-01T13:38:09;4.60;;;0.90;;
25715;SDS011;13573;50.936;4.328;2022-08-01T13:40:36;2.83;;;1.00;;
25715;SDS011;13573;50.936;4.328;2022-08-01T13:43:03;2.05;;;0.70;;
25715;SDS011;13573;50.936;4.328;2022-08-01T13:45:29;1.37;;;0.70;;
25715;SDS011;13573;50.936;4.328;2022-08-01T13:47:56;1.32;;;0.70;;
25715;SDS011;13573;50.936;4.328;2022-08-01T13:50:22;2.22;;;0.80;;
25715;SDS011;13573;50.936;4.328;2022-08-01T13:52:50;2.10;;;0.70;;
25715;SDS011;13573;50.936;4.328;2022-08-01T13:55:17;1.72;;;0.88;;
25715;SDS011;13573;50.936;4.328;2022-08-01T13:57:44;2.08;;;0.95;;
25715;SDS011;13573;50.936;4.328;2022-08-01T14:00:11;2.25;;;0.80;;
25715;SDS011;13573;50.936;4.328;2022-08-01T14:02:38;3.60;;;1.17;;
25715;SDS011;13573;50.936;4.328;2022-08-01T14:05:04;4.10;;;0.90;;
25715;SDS011;13573;50.936;4.328;2022-08-01T14:07:32;2.90;;;0.70;;
25715;SDS011;13573;50.936;4.328;2022-08-01T14:09:59;2.85;;;1.00;;
25715;SDS011;13573;50.936;4.328;2022-08-01T14:12:26;6.70;;;1.00;;
25715;SDS011;13573;50.936;4.328;2022-08-01T14:14:53;2.75;;;1.05;;
25715;SDS011;13573;50.936;4.328;2022-08-01T14:17:19;4.33;;;1.00;;
25715;SDS011;13573;50.936;4.328;2022-08-01T14:19:46;1.30;;;0.70;;
25715;SDS011;13573;50.936;4.328;2022-08-01T14:22:13;1.20;;;0.78;;
25715;SDS011;13573;50.936;4.328;2022-08-01T14:24:39;3.08;;;0.90;;
25715;SDS011;13573;50.936;4.328;2022-08-01T14:27:06;1.85;;;0.68;;
25715;SDS011;13573;50.936;4.328;2022-08-01T14:29:32;2.72;;;0.90;;
25715;SDS011;13573;50.936;4.328;2022-08-01T14:31:59;1.65;;;1.00;;
25715;SDS011;13573;50.936;4.328;2022-08-01T14:34:26;1.80;;;0.88;;
25715;SDS011;13573;50.936;4.328;2022-08-01T14:36:52;1.95;;;1.00;;
25715;SDS011;13573;50.936;4.328;2022-08-01T14:39:19;1.92;;;1.12;;
25715;SDS011;13573;50.936;4.328;2022-08-01T14:41:46;0.85;;;0.70;;
25715;SDS011;13573;50.936;4.328;2022-08-01T14:44:13;2.52;;;0.95;;
25715;SDS011;13573;50.936;4.328;2022-08-01T14:46:39;0.95;;;0.85;;
25715;SDS011;13573;50.936;4.328;2022-08-01T14:49:06;1.20;;;0.80;;
25715;SDS011;13573;50.936;4.328;2022-08-01T14:51:34;2.20;;;0.70;;
25715;SDS011;13573;50.936;4.328;2022-08-01T14:54:02;3.02;;;0.93;;
25715;SDS011;13573;50.936;4.328;2022-08-01T14:56:30;3.15;;;0.95;;
25715;SDS011;13573;50.936;4.328;2022-08-01T14:58:56;2.62;;;0.95;;
25715;SDS011;13573;50.936;4.328;2022-08-01T15:01:24;3.27;;;0.90;;
25715;SDS011;13573;50.936;4.328;2022-08-01T15:03:50;1.12;;;1.00;;
25715;SDS011;13573;50.936;4.328;2022-08-01T15:06:18;1.65;;;0.80;;
25715;SDS011;13573;50.936;4.328;2022-08-01T15:08:46;3.02;;;1.00;;
25715;SDS011;13573;50.936;4.328;2022-08-01T15:11:12;1.90;;;1.00;;
25715;SDS011;13573;50.936;4.328;2022-08-01T15:13:38;1.57;;;0.90;;
25715;SDS011;13573;50.936;4.328;2022-08-01T15:16:06;2.37;;;0.90;;
25715;SDS011;13573;50.936;4.328;2022-08-01T15:18:32;1.45;;;0.90;;
25715;SDS011;13573;50.936;4.328;2022-08-01T15:20:58;2.92;;;1.00;;
25715;SDS011;13573;50.936;4.328;2022-08-01T15:23:25;1.30;;;0.90;;